sensor_id;sensor_type;location;lat;lon;timestamp;P1;durP1;ratioP1;P2;durP2;ratioP2
4636;SDS011;2331;48.806;9.140;2023-05-23T00:00:02;39.13;;;22.85;;
4636;SDS011;2331;48.806;9.140;2023-05-23T00:02:29;41.50;;;24.45;;
4636;SDS011;2331;48.806;9.140;2023-05-23T00:04:56;44.35;;;26.30;;
4636;SDS011;2331;48.806;9.140;2023-05-23T00:07:23;43.45;;;24.73;;
4636;SDS011;2331;48.806;9.140;2023-05-23T00:09:51;47.00;;;26.10;;
4636;SDS011;2331;48.806;9.140;2023-05-23T00:12:18;45.45;;;25.50;;
4636;SDS011;2331;48.806;9.140;2023-05-23T00:14:44;44.30;;;26.10;;
4636;SDS011;2331;48.806;9.140;2023-05-23T00:17:11;42.83;;;26.10;;
4636;SDS011;2331;48.806;9.140;2023-05-23T00:19:38;53.10;;;27.80;;
4636;SDS011;2331;48.806;9.140;2023-05-23T00:22:05;47.08;;;26.77;;
4636;SDS011;2331;48.806;9.140;2023-05-23T00:24:32;45.97;;;26.47;;
4636;SDS011;2331;48.806;9.140;2023-05-23T00:27:00;48.10;;;26.60;;
4636;SDS011;2331;48.806;9.140;2023-05-23T00:29:26;54.87;;;28.93;;
4636;SDS011;2331;48.806;9.140;2023-05-23T00:31:53;47.53;;;27.53;;
4636;SDS011;2331;48.806;9.140;2023-05-23T00:34:20;49.75;;;27.30;;
4636;SDS011;2331;48.806;9.140;2023-05-23T00:36:46;49.05;;;28.23;;
4636;SDS011;2331;48.806;9.140;2023-05-23T00:39:14;50.25;;;28.23;;
4636;SDS011;2331;48.806;9.140;2023-05-23T00:41:43;51.87;;;30.50;;
4636;SDS011;2331;48.806;9.140;2023-05-23T00:44:11;50.72;;;29.13;;
4636;SDS011;2331;48.806;9.140;2023-05-23T00:46:38;59.97;;;29.40;;
4636;SDS011;2331;48.806;9.140;2023-05-23T00:49:06;54.97;;;29.57;;
4636;SDS011;2331;48.806;9.140;2023-05-23T00:51:32;60.93;;;31.57;;
4636;SDS011;2331;48.806;9.140;2023-05-23T00:54:00;54.90;;;29.43;;
4636;SDS011;2331;48.806;9.140;2023-05-23T00:56:30;52.00;;;30.40;;
4636;SDS011;2331;48.806;9.140;2023-05-23T00:58:57;59.00;;;32.03;;
4636;SDS011;2331;48.806;9.140;2023-05-23T01:01:26;54.55;;;30.30;;
4636;SDS011;2331;48.806;9.140;2023-05-23T01:03:53;65.55;;;33.30;;
4636;SDS011;2331;48.806;9.140;2023-05-23T01:06:20;58.47;;;32.50;;
4636;SDS011;2331;48.806;9.140;2023-05-23T01:08:47;59.60;;;32.20;;
4636;SDS011;2331;48.806;9.140;2023-05-23T01:11:31;60.72;;;33.70;;
4636;SDS011;2331;48.806;9.140;2023-05-23T01:14:04;63.23;;;33.10;;
4636;SDS011;2331;48.806;9.140;2023-05-23T01:16:37;66.38;;;35.00;;
4636;SDS011;2331;48.806;9.140;2023-05-23T01:19:15;73.70;;;36.85;;
4636;SDS011;2331;48.806;9.140;2023-05-23T01:21:53;70.43;;;36.67;;
4636;SDS011;2331;48.806;9.140;2023-05-23T01:24:29;61.05;;;34.90;;
4636;SDS011;2331;48.806;9.140;2023-05-23T01:27:04;63.92;;;36.28;;
4636;SDS011;2331;48.806;9.140;2023-05-23T01:29:41;64.30;;;35.87;;
4636;SDS011;2331;48.806;9.140;2023-05-23T01:32:10;68.50;;;37.03;;
4636;SDS011;2331;48.806;9.140;2023-05-23T01:34:39;70.07;;;38.20;;
4636;SDS011;2331;48.806;9.140;2023-05-23T01:37:08;77.63;;;38.33;;
4636;SDS011;2331;48.806;9.140;2023-05-23T01:39:35;69.70;;;37.47;;
4636;SDS011;2331;48.806;9.140;2023-05-23T01:42:02;71.10;;;37.80;;
4636;SDS011;2331;48.806;9.140;2023-05-23T01:44:30;74.43;;;38.42;;
4636;SDS011;2331;48.806;9.140;2023-05-23T01:46:59;71.60;;;38.78;;
4636;SDS011;2331;48.806;9.140;2023-05-23T01:49:26;73.70;;;38.47;;
4636;SDS011;2331;48.806;9.140;2023-05-23T01:51:55;77.88;;;41.17;;
4636;SDS011;2331;48.806;9.140;2023-05-23T01:54:22;75.78;;;40.03;;
4636;SDS011;2331;48.806;9.140;2023-05-23T01:56:48;72.13;;;40.43;;
4636;SDS011;2331;48.806;9.140;2023-05-23T01:59:16;75.95;;;41.03;;
4636;SDS011;2331;48.806;9.140;2023-05-23T02:01:42;78.13;;;42.83;;
4636;SDS011;2331;48.806;9.140;2023-05-23T02:04:10;86.10;;;44.05;;
4636;SDS011;2331;48.806;9.140;2023-05-23T02:06:38;77.57;;;41.50;;
4636;SDS011;2331;48.806;9.140;2023-05-23T02:09:05;78.53;;;41.80;;
4636;SDS011;2331;48.806;9.140;2023-05-23T02:11:32;84.47;;;43.58;;
4636;SDS011;2331;48.806;9.140;2023-05-23T02:13:59;85.22;;;43.08;;
4636;SDS011;2331;48.806;9.140;2023-05-23T02:16:26;82.10;;;44.47;;
4636;SDS011;2331;48.806;9.140;2023-05-23T02:18:53;75.55;;;42.60;;
4636;SDS011;2331;48.806;9.140;2023-05-23T02:21:21;81.25;;;41.53;;
4636;SDS011;2331;48.806;9.140;2023-05-23T02:23:48;81.83;;;42.30;;
4636;SDS011;2331;48.806;9.140;2023-05-23T02:26:15;82.32;;;43.78;;
4636;SDS011;2331;48.806;9.140;2023-05-23T02:28:41;82.40;;;44.92;;
4636;SDS011;2331;48.806;9.140;2023-05-23T02:31:08;84.10;;;44.00;;
4636;SDS011;2331;48.806;9.140;2023-05-23T02:33:35;85.68;;;45.60;;
4636;SDS011;2331;48.806;9.140;2023-05-23T02:36:02;81.38;;;45.92;;
4636;SDS011;2331;48.806;9.140;2023-05-23T02:38:30;86.90;;;43.95;;
4636;SDS011;2331;48.806;9.140;2023-05-23T02:40:57;77.95;;;42.42;;
4636;SDS011;2331;48.806;9.140;2023-05-23T02:43:24;77.28;;;44.22;;
4636;SDS011;2331;48.806;9.140;2023-05-23T02:45:51;79.55;;;44.10;;
4636;SDS011;2331;48.806;9.140;2023-05-23T02:48:18;82.90;;;45.08;;
4636;SDS011;2331;48.806;9.140;2023-05-23T02:50:45;93.32;;;46.65;;
4636;SDS011;2331;48.806;9.140;2023-05-23T02:53:11;84.38;;;46.33;;
4636;SDS011;2331;48.806;9.140;2023-05-23T02:55:39;77.95;;;43.55;;
4636;SDS011;2331;48.806;9.140;2023-05-23T02:58:06;80.10;;;44.80;;
4636;SDS011;2331;48.806;9.140;2023-05-23T03:00:33;74.97;;;43.78;;
4636;SDS011;2331;48.806;9.140;2023-05-23T03:03:01;80.05;;;44.00;;
4636;SDS011;2331;48.806;9.140;2023-05-23T03:05:27;75.05;;;43.75;;
4636;SDS011;2331;48.806;9.140;2023-05-23T03:07:54;82.07;;;44.97;;
4636;SDS011;2331;48.806;9.140;2023-05-23T03:10:21;76.60;;;42.65;;
4636;SDS011;2331;48.806;9.140;2023-05-23T03:12:49;72.20;;;41.58;;
4636;SDS011;2331;48.806;9.140;2023-05-23T03:15:16;87.05;;;44.60;;
4636;SDS011;2331;48.806;9.140;2023-05-23T03:17:43;82.85;;;44.10;;
4636;SDS011;2331;48.806;9.140;2023-05-23T03:20:10;72.18;;;42.05;;
4636;SDS011;2331;48.806;9.140;2023-05-23T03:22:36;74.00;;;42.03;;
4636;SDS011;2331;48.806;9.140;2023-05-23T03:25:04;70.55;;;41.15;;
4636;SDS011;2331;48.806;9.140;2023-05-23T03:27:31;69.00;;;41.60;;
4636;SDS011;2331;48.806;9.140;2023-05-23T03:29:59;74.60;;;41.38;;
4636;SDS011;2331;48.806;9.140;2023-05-23T03:32:26;70.35;;;40.03;;
4636;SDS011;2331;48.806;9.140;2023-05-23T03:34:53;67.40;;;40.15;;
4636;SDS011;2331;48.806;9.140;2023-05-23T03:37:20;70.85;;;40.50;;
4636;SDS011;2331;48.806;9.140;2023-05-23T03:39:46;71.25;;;42.03;;
4636;SDS011;2331;48.806;9.140;2023-05-23T03:42:13;62.55;;;38.45;;
4636;SDS011;2331;48.806;9.140;2023-05-23T03:44:40;68.45;;;39.83;;
4636;SDS011;2331;48.806;9.140;2023-05-23T03:47:08;66.18;;;37.40;;
4636;SDS011;2331;48.806;9.140;2023-05-23T03:49:35;68.13;;;39.95;;
4636;SDS011;2331;48.806;9.140;2023-05-23T03:52:01;68.00;;;39.60;;
4636;SDS011;2331;48.806;9.140;2023-05-23T03:54:28;67.80;;;39.47;;
4636;SDS011;2331;48.806;9.140;2023-05-23T03:56:55;62.63;;;37.50;;
4636;SDS011;2331;48.806;9.140;2023-05-23T03:59:21;61.17;;;38.38;;
4636;SDS011;2331;48.806;9.140;2023-05-23T04:01:48;69.07;;;38.63;;
4636;SDS011;2331;48.806;9.140;2023-05-23T04:04:16;67.18;;;38.83;;
4636;SDS011;2331;48.806;9.140;2023-05-23T04:06:44;64.03;;;38.38;;
4636;SDS011;2331;48.806;9.140;2023-05-23T04:09:11;65.57;;;38.42;;
4636;SDS011;2331;48.806;9.140;2023-05-23T04:11:39;65.28;;;38.17;;
4636;SDS011;2331;48.806;9.140;2023-05-23T04:14:06;65.90;;;39.55;;
4636;SDS011;2331;48.806;9.140;2023-05-23T04:16:33;62.33;;;37.00;;
4636;SDS011;2331;48.806;9.140;2023-05-23T04:19:00;65.35;;;39.47;;
4636;SDS011;2331;48.806;9.140;2023-05-23T04:21:29;61.67;;;37.40;;
4636;SDS011;2331;48.806;9.140;2023-05-23T04:23:56;64.93;;;38.42;;
4636;SDS011;2331;48.806;9.140;2023-05-23T04:26:23;61.95;;;38.13;;
4636;SDS011;2331;48.806;9.140;2023-05-23T04:28:49;60.28;;;37.00;;
4636;SDS011;2331;48.806;9.140;2023-05-23T04:31:18;60.03;;;36.85;;
4636;SDS011;2331;48.806;9.140;2023-05-23T04:33:46;57.55;;;34.50;;
4636;SDS011;2331;48.806;9.140;2023-05-23T04:36:18;58.63;;;35.53;;
4636;SDS011;2331;48.806;9.140;2023-05-23T04:38:48;59.88;;;36.75;;
4636;SDS011;2331;48.806;9.140;2023-05-23T04:41:15;59.25;;;36.67;;
4636;SDS011;2331;48.806;9.140;2023-05-23T04:43:47;57.25;;;36.83;;
4636;SDS011;2331;48.806;9.140;2023-05-23T04:46:18;60.25;;;37.38;;
4636;SDS011;2331;48.806;9.140;2023-05-23T04:48:50;55.30;;;34.05;;
4636;SDS011;2331;48.806;9.140;2023-05-23T04:51:20;53.95;;;34.47;;
4636;SDS011;2331;48.806;9.140;2023-05-23T04:53:48;64.50;;;36.83;;
4636;SDS011;2331;48.806;9.140;2023-05-23T04:56:16;59.92;;;37.53;;
4636;SDS011;2331;48.806;9.140;2023-05-23T04:58:44;55.58;;;35.53;;
4636;SDS011;2331;48.806;9.140;2023-05-23T05:01:12;55.50;;;35.75;;
4636;SDS011;2331;48.806;9.140;2023-05-23T05:03:39;57.65;;;35.67;;
4636;SDS011;2331;48.806;9.140;2023-05-23T05:06:06;58.85;;;36.05;;
4636;SDS011;2331;48.806;9.140;2023-05-23T05:08:33;62.00;;;36.65;;
4636;SDS011;2331;48.806;9.140;2023-05-23T05:11:01;55.08;;;37.00;;
4636;SDS011;2331;48.806;9.140;2023-05-23T05:13:28;58.00;;;35.92;;
4636;SDS011;2331;48.806;9.140;2023-05-23T05:15:54;54.33;;;35.17;;
4636;SDS011;2331;48.806;9.140;2023-05-23T05:18:21;56.75;;;36.20;;
4636;SDS011;2331;48.806;9.140;2023-05-23T05:20:48;53.85;;;34.45;;
4636;SDS011;2331;48.806;9.140;2023-05-23T05:23:14;58.60;;;36.08;;
4636;SDS011;2331;48.806;9.140;2023-05-23T05:25:41;64.43;;;36.05;;
4636;SDS011;2331;48.806;9.140;2023-05-23T05:28:09;57.70;;;36.90;;
4636;SDS011;2331;48.806;9.140;2023-05-23T05:30:36;57.28;;;36.35;;
4636;SDS011;2331;48.806;9.140;2023-05-23T05:33:03;66.10;;;39.10;;
4636;SDS011;2331;48.806;9.140;2023-05-23T05:35:31;56.83;;;37.35;;
4636;SDS011;2331;48.806;9.140;2023-05-23T05:37:58;57.67;;;35.25;;
4636;SDS011;2331;48.806;9.140;2023-05-23T05:40:25;60.67;;;35.42;;
4636;SDS011;2331;48.806;9.140;2023-05-23T05:42:52;54.47;;;35.70;;
4636;SDS011;2331;48.806;9.140;2023-05-23T05:45:20;52.58;;;34.78;;
4636;SDS011;2331;48.806;9.140;2023-05-23T05:47:46;53.95;;;35.13;;
4636;SDS011;2331;48.806;9.140;2023-05-23T05:50:13;54.17;;;35.30;;
4636;SDS011;2331;48.806;9.140;2023-05-23T05:52:40;52.58;;;34.42;;
4636;SDS011;2331;48.806;9.140;2023-05-23T05:55:08;55.65;;;35.55;;
4636;SDS011;2331;48.806;9.140;2023-05-23T05:57:36;55.85;;;34.47;;
4636;SDS011;2331;48.806;9.140;2023-05-23T06:00:03;57.30;;;35.88;;
4636;SDS011;2331;48.806;9.140;2023-05-23T06:02:38;54.95;;;36.33;;
4636;SDS011;2331;48.806;9.140;2023-05-23T06:05:06;53.20;;;36.55;;
4636;SDS011;2331;48.806;9.140;2023-05-23T06:07:36;53.70;;;36.30;;
4636;SDS011;2331;48.806;9.140;2023-05-23T06:10:03;58.47;;;36.15;;
4636;SDS011;2331;48.806;9.140;2023-05-23T06:12:30;52.45;;;35.03;;
4636;SDS011;2331;48.806;9.140;2023-05-23T06:14:57;55.65;;;35.97;;
4636;SDS011;2331;48.806;9.140;2023-05-23T06:17:24;56.60;;;36.55;;
4636;SDS011;2331;48.806;9.140;2023-05-23T06:19:52;58.63;;;37.55;;
4636;SDS011;2331;48.806;9.140;2023-05-23T06:22:18;53.55;;;36.55;;
4636;SDS011;2331;48.806;9.140;2023-05-23T06:24:45;53.38;;;35.28;;
4636;SDS011;2331;48.806;9.140;2023-05-23T06:27:12;55.78;;;37.17;;
4636;SDS011;2331;48.806;9.140;2023-05-23T06:29:38;56.33;;;36.80;;
4636;SDS011;2331;48.806;9.140;2023-05-23T06:32:05;55.58;;;36.22;;
4636;SDS011;2331;48.806;9.140;2023-05-23T06:34:32;49.47;;;34.10;;
4636;SDS011;2331;48.806;9.140;2023-05-23T06:37:00;51.65;;;33.63;;
4636;SDS011;2331;48.806;9.140;2023-05-23T06:39:26;48.90;;;33.38;;
4636;SDS011;2331;48.806;9.140;2023-05-23T06:41:53;53.10;;;35.05;;
4636;SDS011;2331;48.806;9.140;2023-05-23T06:44:20;47.65;;;31.67;;
4636;SDS011;2331;48.806;9.140;2023-05-23T06:46:47;52.30;;;33.28;;
4636;SDS011;2331;48.806;9.140;2023-05-23T06:49:13;53.35;;;33.20;;
4636;SDS011;2331;48.806;9.140;2023-05-23T06:51:40;50.28;;;33.78;;
4636;SDS011;2331;48.806;9.140;2023-05-23T06:54:08;48.60;;;31.40;;
4636;SDS011;2331;48.806;9.140;2023-05-23T06:56:35;50.55;;;33.42;;
4636;SDS011;2331;48.806;9.140;2023-05-23T06:59:02;46.78;;;31.90;;
4636;SDS011;2331;48.806;9.140;2023-05-23T07:01:28;49.80;;;33.10;;
4636;SDS011;2331;48.806;9.140;2023-05-23T07:03:55;48.42;;;32.35;;
4636;SDS011;2331;48.806;9.140;2023-05-23T07:06:21;54.33;;;34.50;;
4636;SDS011;2331;48.806;9.140;2023-05-23T07:08:48;51.90;;;33.92;;
4636;SDS011;2331;48.806;9.140;2023-05-23T07:11:16;49.30;;;31.90;;
4636;SDS011;2331;48.806;9.140;2023-05-23T07:13:43;42.75;;;28.63;;
4636;SDS011;2331;48.806;9.140;2023-05-23T07:16:10;42.40;;;28.90;;
4636;SDS011;2331;48.806;9.140;2023-05-23T07:18:37;43.55;;;29.38;;
4636;SDS011;2331;48.806;9.140;2023-05-23T07:21:03;37.90;;;25.80;;
4636;SDS011;2331;48.806;9.140;2023-05-23T07:23:31;35.63;;;24.30;;
4636;SDS011;2331;48.806;9.140;2023-05-23T07:25:58;35.33;;;23.63;;
4636;SDS011;2331;48.806;9.140;2023-05-23T07:28:27;38.22;;;25.23;;
4636;SDS011;2331;48.806;9.140;2023-05-23T07:30:55;37.38;;;24.33;;
4636;SDS011;2331;48.806;9.140;2023-05-23T07:33:22;35.90;;;23.23;;
4636;SDS011;2331;48.806;9.140;2023-05-23T07:35:49;40.28;;;27.40;;
4636;SDS011;2331;48.806;9.140;2023-05-23T07:38:16;44.70;;;29.58;;
4636;SDS011;2331;48.806;9.140;2023-05-23T07:40:42;47.88;;;32.28;;
4636;SDS011;2331;48.806;9.140;2023-05-23T07:43:09;51.10;;;33.72;;
4636;SDS011;2331;48.806;9.140;2023-05-23T07:45:37;39.70;;;28.55;;
4636;SDS011;2331;48.806;9.140;2023-05-23T07:48:04;39.00;;;28.20;;
4636;SDS011;2331;48.806;9.140;2023-05-23T07:50:30;42.95;;;26.40;;
4636;SDS011;2331;48.806;9.140;2023-05-23T07:52:57;36.92;;;24.85;;
4636;SDS011;2331;48.806;9.140;2023-05-23T07:55:24;32.88;;;23.25;;
4636;SDS011;2331;48.806;9.140;2023-05-23T07:57:50;32.83;;;22.73;;
4636;SDS011;2331;48.806;9.140;2023-05-23T08:00:19;33.50;;;21.27;;
4636;SDS011;2331;48.806;9.140;2023-05-23T08:02:47;36.17;;;21.40;;
4636;SDS011;2331;48.806;9.140;2023-05-23T08:05:14;24.33;;;17.17;;
4636;SDS011;2331;48.806;9.140;2023-05-23T08:07:43;27.00;;;19.70;;
4636;SDS011;2331;48.806;9.140;2023-05-23T08:10:10;28.95;;;20.27;;
4636;SDS011;2331;48.806;9.140;2023-05-23T08:12:36;31.05;;;21.92;;
4636;SDS011;2331;48.806;9.140;2023-05-23T08:15:03;33.92;;;20.75;;
4636;SDS011;2331;48.806;9.140;2023-05-23T08:17:32;30.00;;;19.58;;
4636;SDS011;2331;48.806;9.140;2023-05-23T08:20:00;30.05;;;20.20;;
4636;SDS011;2331;48.806;9.140;2023-05-23T08:22:28;28.45;;;20.13;;
4636;SDS011;2331;48.806;9.140;2023-05-23T08:24:55;32.10;;;20.70;;
4636;SDS011;2331;48.806;9.140;2023-05-23T08:27:22;29.60;;;19.20;;
4636;SDS011;2331;48.806;9.140;2023-05-23T08:29:48;27.63;;;19.25;;
4636;SDS011;2331;48.806;9.140;2023-05-23T08:32:15;27.20;;;19.75;;
4636;SDS011;2331;48.806;9.140;2023-05-23T08:34:42;27.35;;;18.08;;
4636;SDS011;2331;48.806;9.140;2023-05-23T08:37:10;30.65;;;18.55;;
4636;SDS011;2331;48.806;9.140;2023-05-23T08:39:36;29.33;;;18.75;;
4636;SDS011;2331;48.806;9.140;2023-05-23T08:42:03;28.75;;;18.80;;
4636;SDS011;2331;48.806;9.140;2023-05-23T08:44:30;25.58;;;17.65;;
4636;SDS011;2331;48.806;9.140;2023-05-23T08:46:57;27.55;;;17.83;;
4636;SDS011;2331;48.806;9.140;2023-05-23T08:49:29;27.33;;;17.60;;
4636;SDS011;2331;48.806;9.140;2023-05-23T08:51:56;25.13;;;18.25;;
4636;SDS011;2331;48.806;9.140;2023-05-23T08:54:28;26.58;;;17.63;;
4636;SDS011;2331;48.806;9.140;2023-05-23T08:56:56;25.98;;;18.25;;
4636;SDS011;2331;48.806;9.140;2023-05-23T08:59:23;24.63;;;17.88;;
4636;SDS011;2331;48.806;9.140;2023-05-23T09:01:52;27.95;;;19.67;;
4636;SDS011;2331;48.806;9.140;2023-05-23T09:04:21;25.58;;;19.42;;
4636;SDS011;2331;48.806;9.140;2023-05-23T09:06:48;27.85;;;19.83;;
4636;SDS011;2331;48.806;9.140;2023-05-23T09:09:15;26.05;;;18.10;;
4636;SDS011;2331;48.806;9.140;2023-05-23T09:11:43;25.60;;;19.08;;
4636;SDS011;2331;48.806;9.140;2023-05-23T09:14:10;23.77;;;16.95;;
4636;SDS011;2331;48.806;9.140;2023-05-23T09:16:38;24.40;;;17.67;;
4636;SDS011;2331;48.806;9.140;2023-05-23T09:19:09;25.10;;;16.45;;
4636;SDS011;2331;48.806;9.140;2023-05-23T09:21:36;26.45;;;17.90;;
4636;SDS011;2331;48.806;9.140;2023-05-23T09:24:04;19.98;;;15.40;;
4636;SDS011;2331;48.806;9.140;2023-05-23T09:26:31;21.30;;;15.30;;
4636;SDS011;2331;48.806;9.140;2023-05-23T09:28:59;18.73;;;13.95;;
4636;SDS011;2331;48.806;9.140;2023-05-23T09:31:30;22.00;;;15.48;;
4636;SDS011;2331;48.806;9.140;2023-05-23T09:33:57;24.92;;;14.45;;
4636;SDS011;2331;48.806;9.140;2023-05-23T09:36:26;21.65;;;14.85;;
4636;SDS011;2331;48.806;9.140;2023-05-23T09:38:54;21.17;;;14.60;;
4636;SDS011;2331;48.806;9.140;2023-05-23T09:41:21;24.50;;;15.45;;
4636;SDS011;2331;48.806;9.140;2023-05-23T09:43:49;24.13;;;15.10;;
4636;SDS011;2331;48.806;9.140;2023-05-23T09:46:18;23.35;;;14.52;;
4636;SDS011;2331;48.806;9.140;2023-05-23T09:48:46;20.13;;;14.02;;
4636;SDS011;2331;48.806;9.140;2023-05-23T09:51:12;20.38;;;13.32;;
4636;SDS011;2331;48.806;9.140;2023-05-23T09:53:40;24.23;;;15.10;;
4636;SDS011;2331;48.806;9.140;2023-05-23T09:56:06;17.90;;;12.55;;
4636;SDS011;2331;48.806;9.140;2023-05-23T09:58:36;20.08;;;13.45;;
4636;SDS011;2331;48.806;9.140;2023-05-23T10:01:04;20.70;;;13.68;;
4636;SDS011;2331;48.806;9.140;2023-05-23T10:03:37;19.17;;;12.60;;
4636;SDS011;2331;48.806;9.140;2023-05-23T10:06:09;17.40;;;13.27;;
4636;SDS011;2331;48.806;9.140;2023-05-23T10:08:42;15.63;;;11.75;;
4636;SDS011;2331;48.806;9.140;2023-05-23T10:14:13;18.63;;;11.63;;
4636;SDS011;2331;48.806;9.140;2023-05-23T10:16:43;17.15;;;11.15;;
4636;SDS011;2331;48.806;9.140;2023-05-23T10:19:19;14.63;;;11.02;;
4636;SDS011;2331;48.806;9.140;2023-05-23T10:21:49;16.30;;;11.05;;
4636;SDS011;2331;48.806;9.140;2023-05-23T10:24:20;14.10;;;10.60;;
4636;SDS011;2331;48.806;9.140;2023-05-23T10:26:47;13.40;;;10.30;;
4636;SDS011;2331;48.806;9.140;2023-05-23T10:29:14;13.75;;;10.02;;
4636;SDS011;2331;48.806;9.140;2023-05-23T10:31:41;13.25;;;9.77;;
4636;SDS011;2331;48.806;9.140;2023-05-23T10:34:13;16.30;;;10.17;;
4636;SDS011;2331;48.806;9.140;2023-05-23T10:36:48;20.13;;;9.73;;
4636;SDS011;2331;48.806;9.140;2023-05-23T10:39:27;12.93;;;8.73;;
4636;SDS011;2331;48.806;9.140;2023-05-23T10:42:09;11.90;;;9.70;;
4636;SDS011;2331;48.806;9.140;2023-05-23T10:44:40;13.80;;;9.80;;
4636;SDS011;2331;48.806;9.140;2023-05-23T10:47:07;15.60;;;9.90;;
4636;SDS011;2331;48.806;9.140;2023-05-23T10:49:39;13.77;;;9.23;;
4636;SDS011;2331;48.806;9.140;2023-05-23T10:52:07;16.77;;;11.43;;
4636;SDS011;2331;48.806;9.140;2023-05-23T10:54:36;12.37;;;9.80;;
4636;SDS011;2331;48.806;9.140;2023-05-23T10:57:08;11.83;;;9.60;;
4636;SDS011;2331;48.806;9.140;2023-05-23T10:59:35;13.40;;;10.00;;
4636;SDS011;2331;48.806;9.140;2023-05-23T11:02:03;15.27;;;9.70;;
4636;SDS011;2331;48.806;9.140;2023-05-23T11:04:38;11.07;;;9.10;;
4636;SDS011;2331;48.806;9.140;2023-05-23T11:07:05;11.70;;;9.00;;
4636;SDS011;2331;48.806;9.140;2023-05-23T11:10:07;12.63;;;9.33;;
4636;SDS011;2331;48.806;9.140;2023-05-23T11:12:36;10.90;;;8.63;;
4636;SDS011;2331;48.806;9.140;2023-05-23T11:15:17;14.10;;;8.87;;
4636;SDS011;2331;48.806;9.140;2023-05-23T11:17:48;16.20;;;8.87;;
4636;SDS011;2331;48.806;9.140;2023-05-23T11:20:18;12.83;;;9.53;;
4636;SDS011;2331;48.806;9.140;2023-05-23T11:22:52;12.60;;;9.77;;
4636;SDS011;2331;48.806;9.140;2023-05-23T11:25:19;14.13;;;10.53;;
4636;SDS011;2331;48.806;9.140;2023-05-23T11:27:47;14.20;;;8.90;;
4636;SDS011;2331;48.806;9.140;2023-05-23T11:30:15;13.80;;;10.90;;
4636;SDS011;2331;48.806;9.140;2023-05-23T11:32:49;14.90;;;11.27;;
4636;SDS011;2331;48.806;9.140;2023-05-23T11:35:17;17.27;;;11.90;;
4636;SDS011;2331;48.806;9.140;2023-05-23T11:37:45;13.57;;;10.90;;
4636;SDS011;2331;48.806;9.140;2023-05-23T11:40:24;13.10;;;9.17;;
4636;SDS011;2331;48.806;9.140;2023-05-23T11:42:52;14.27;;;11.10;;
4636;SDS011;2331;48.806;9.140;2023-05-23T11:45:19;17.40;;;10.77;;
4636;SDS011;2331;48.806;9.140;2023-05-23T11:47:46;14.80;;;11.00;;
4636;SDS011;2331;48.806;9.140;2023-05-23T11:50:13;14.93;;;11.20;;
4636;SDS011;2331;48.806;9.140;2023-05-23T11:52:41;14.33;;;10.80;;
4636;SDS011;2331;48.806;9.140;2023-05-23T11:55:08;13.90;;;10.60;;
4636;SDS011;2331;48.806;9.140;2023-05-23T11:57:36;14.87;;;10.27;;
4636;SDS011;2331;48.806;9.140;2023-05-23T12:00:04;14.50;;;10.70;;
4636;SDS011;2331;48.806;9.140;2023-05-23T12:02:37;15.70;;;11.40;;
4636;SDS011;2331;48.806;9.140;2023-05-23T12:05:07;12.90;;;9.80;;
4636;SDS011;2331;48.806;9.140;2023-05-23T12:07:35;12.30;;;9.10;;
4636;SDS011;2331;48.806;9.140;2023-05-23T12:10:07;12.00;;;9.20;;
4636;SDS011;2331;48.806;9.140;2023-05-23T12:12:35;11.53;;;8.53;;
4636;SDS011;2331;48.806;9.140;2023-05-23T12:15:02;10.03;;;8.00;;
4636;SDS011;2331;48.806;9.140;2023-05-23T12:17:29;9.80;;;8.10;;
4636;SDS011;2331;48.806;9.140;2023-05-23T12:19:56;10.60;;;8.50;;
4636;SDS011;2331;48.806;9.140;2023-05-23T12:22:24;11.67;;;9.33;;
4636;SDS011;2331;48.806;9.140;2023-05-23T12:24:52;11.50;;;7.80;;
4636;SDS011;2331;48.806;9.140;2023-05-23T12:27:25;12.20;;;9.13;;
4636;SDS011;2331;48.806;9.140;2023-05-23T12:29:54;11.87;;;8.20;;
4636;SDS011;2331;48.806;9.140;2023-05-23T12:32:30;11.03;;;8.60;;
4636;SDS011;2331;48.806;9.140;2023-05-23T12:34:57;10.60;;;7.90;;
4636;SDS011;2331;48.806;9.140;2023-05-23T12:37:24;11.93;;;8.13;;
4636;SDS011;2331;48.806;9.140;2023-05-23T12:39:51;10.90;;;7.97;;
4636;SDS011;2331;48.806;9.140;2023-05-23T12:42:18;11.00;;;8.03;;
4636;SDS011;2331;48.806;9.140;2023-05-23T12:44:48;11.80;;;7.00;;
4636;SDS011;2331;48.806;9.140;2023-05-23T12:47:16;9.17;;;7.00;;
4636;SDS011;2331;48.806;9.140;2023-05-23T12:49:43;10.20;;;7.73;;
4636;SDS011;2331;48.806;9.140;2023-05-23T12:52:10;11.20;;;7.77;;
4636;SDS011;2331;48.806;9.140;2023-05-23T12:54:37;10.43;;;7.83;;
4636;SDS011;2331;48.806;9.140;2023-05-23T12:57:04;16.27;;;7.53;;
4636;SDS011;2331;48.806;9.140;2023-05-23T12:59:31;8.17;;;6.13;;
4636;SDS011;2331;48.806;9.140;2023-05-23T13:01:59;9.20;;;6.77;;
4636;SDS011;2331;48.806;9.140;2023-05-23T13:04:26;8.50;;;6.53;;
4636;SDS011;2331;48.806;9.140;2023-05-23T13:06:53;9.10;;;6.67;;
4636;SDS011;2331;48.806;9.140;2023-05-23T13:09:19;8.00;;;5.73;;
4636;SDS011;2331;48.806;9.140;2023-05-23T13:11:46;9.80;;;7.10;;
4636;SDS011;2331;48.806;9.140;2023-05-23T13:14:13;8.63;;;6.37;;
4636;SDS011;2331;48.806;9.140;2023-05-23T13:16:40;7.50;;;5.53;;
4636;SDS011;2331;48.806;9.140;2023-05-23T13:19:08;7.33;;;5.93;;
4636;SDS011;2331;48.806;9.140;2023-05-23T13:21:35;9.53;;;5.70;;
4636;SDS011;2331;48.806;9.140;2023-05-23T13:24:02;7.37;;;5.30;;
4636;SDS011;2331;48.806;9.140;2023-05-23T13:26:28;8.70;;;6.30;;
4636;SDS011;2331;48.806;9.140;2023-05-23T13:28:55;9.20;;;6.07;;
4636;SDS011;2331;48.806;9.140;2023-05-23T13:31:22;8.10;;;5.60;;
4636;SDS011;2331;48.806;9.140;2023-05-23T13:33:48;9.67;;;5.83;;
4636;SDS011;2331;48.806;9.140;2023-05-23T13:36:16;12.27;;;6.10;;
4636;SDS011;2331;48.806;9.140;2023-05-23T13:38:43;7.20;;;5.33;;
4636;SDS011;2331;48.806;9.140;2023-05-23T13:41:10;7.37;;;5.03;;
4636;SDS011;2331;48.806;9.140;2023-05-23T13:43:37;6.00;;;4.53;;
4636;SDS011;2331;48.806;9.140;2023-05-23T13:46:03;7.90;;;5.80;;
4636;SDS011;2331;48.806;9.140;2023-05-23T13:48:30;7.37;;;5.00;;
4636;SDS011;2331;48.806;9.140;2023-05-23T13:50:57;6.20;;;4.40;;
4636;SDS011;2331;48.806;9.140;2023-05-23T13:53:25;7.90;;;5.33;;
4636;SDS011;2331;48.806;9.140;2023-05-23T13:55:51;7.53;;;5.37;;
4636;SDS011;2331;48.806;9.140;2023-05-23T13:58:18;10.17;;;5.47;;
4636;SDS011;2331;48.806;9.140;2023-05-23T14:00:45;6.40;;;4.70;;
4636;SDS011;2331;48.806;9.140;2023-05-23T14:03:12;10.40;;;5.40;;
4636;SDS011;2331;48.806;9.140;2023-05-23T14:05:39;7.97;;;5.40;;
4636;SDS011;2331;48.806;9.140;2023-05-23T14:08:06;7.27;;;5.30;;
4636;SDS011;2331;48.806;9.140;2023-05-23T14:10:34;12.20;;;4.63;;
4636;SDS011;2331;48.806;9.140;2023-05-23T14:13:01;7.50;;;5.00;;
4636;SDS011;2331;48.806;9.140;2023-05-23T14:15:27;7.40;;;5.80;;
4636;SDS011;2331;48.806;9.140;2023-05-23T14:17:54;6.33;;;4.80;;
4636;SDS011;2331;48.806;9.140;2023-05-23T14:20:21;11.67;;;5.23;;
4636;SDS011;2331;48.806;9.140;2023-05-23T14:22:48;7.53;;;5.57;;
4636;SDS011;2331;48.806;9.140;2023-05-23T14:25:15;7.63;;;5.03;;
4636;SDS011;2331;48.806;9.140;2023-05-23T14:27:43;7.47;;;5.13;;
4636;SDS011;2331;48.806;9.140;2023-05-23T14:30:10;7.57;;;5.70;;
4636;SDS011;2331;48.806;9.140;2023-05-23T14:32:37;7.30;;;5.43;;
4636;SDS011;2331;48.806;9.140;2023-05-23T14:35:05;8.67;;;5.17;;
4636;SDS011;2331;48.806;9.140;2023-05-23T14:37:33;8.20;;;5.67;;
4636;SDS011;2331;48.806;9.140;2023-05-23T14:39:59;9.73;;;5.40;;
4636;SDS011;2331;48.806;9.140;2023-05-23T14:42:27;12.00;;;4.90;;
4636;SDS011;2331;48.806;9.140;2023-05-23T14:44:55;12.43;;;5.20;;
4636;SDS011;2331;48.806;9.140;2023-05-23T14:47:21;7.80;;;5.23;;
4636;SDS011;2331;48.806;9.140;2023-05-23T14:49:48;7.57;;;5.70;;
4636;SDS011;2331;48.806;9.140;2023-05-23T14:52:15;8.03;;;5.33;;
4636;SDS011;2331;48.806;9.140;2023-05-23T14:54:42;10.13;;;5.70;;
4636;SDS011;2331;48.806;9.140;2023-05-23T14:57:08;8.20;;;4.80;;
4636;SDS011;2331;48.806;9.140;2023-05-23T14:59:35;6.90;;;4.60;;